Terminal Aerodrome Forecast
Issued by NWS Duluth, MN

Home | Current Version | Previous Version | Text Only | Print | Product List | Glossary On
Versions: 1 2 3 4 5 6 7 8 9 10 11 12 13 14 15 16 17 18 19 20 21 22 23
055
FTUS43 KDLH 310539
TAFINL
TAF
KINL 310539Z 3106/0106 10010KT P6SM BKN080
     FM310800 08011G20KT P6SM VCSH SCT015 BKN060
      TEMPO 3108/3112 6SM -SHRA BKN040
     FM311200 10014G20KT 6SM -SHRA BR VCTS SCT015CB OVC040
     FM311600 11013G19KT 5SM -RA BR VCTS SCT007 OVC015CB
     FM312200 11010KT 6SM BR SCT007 OVC013=

USA.gov is the U.S. government's official web portal to all federal, state and local government web resources and services.